createdAt,value
2023-05-15T00:01:42.761Z,96.34
2023-05-15T00:05:27.032Z,95.85
2023-05-15T00:09:09.809Z,95.58
2023-05-15T00:12:52.449Z,97.29
2023-05-15T00:16:35.274Z,97.15
2023-05-15T00:20:18.021Z,96.00
2023-05-15T00:24:02.261Z,96.70
2023-05-15T00:27:45.314Z,96.62
2023-05-15T00:31:28.003Z,97.45
2023-05-15T00:35:10.657Z,96.83
2023-05-15T00:38:53.934Z,96.24
2023-05-15T00:42:38.072Z,94.81
2023-05-15T00:46:21.263Z,95.61
2023-05-15T00:50:04.166Z,96.33
2023-05-15T00:53:46.973Z,95.87
2023-05-15T00:57:30.304Z,95.94
2023-05-15T01:01:14.522Z,96.48
2023-05-15T01:04:57.192Z,96.16
2023-05-15T01:08:43.523Z,96.35
2023-05-15T01:12:27.022Z,95.22
2023-05-15T01:16:10.532Z,94.98
2023-05-15T01:19:54.827Z,94.38
2023-05-15T01:23:46.629Z,94.36
2023-05-15T01:27:32.086Z,94.75
2023-05-15T01:31:16.895Z,95.44
2023-05-15T01:35:04.729Z,95.46
2023-05-15T01:38:50.524Z,95.71
2023-05-15T01:42:35.819Z,95.18
2023-05-15T01:46:21.079Z,95.64
2023-05-15T01:50:04.339Z,95.77
2023-05-15T01:53:47.672Z,95.36
2023-05-15T01:57:31.026Z,95.76
2023-05-15T02:01:15.283Z,95.96
2023-05-15T02:04:58.405Z,96.74
2023-05-15T02:08:42.129Z,96.86
2023-05-15T02:12:25.476Z,96.15
2023-05-15T02:16:08.431Z,96.56
2023-05-15T02:19:52.551Z,97.41
2023-05-15T02:23:35.259Z,97.63
2023-05-15T02:27:21.464Z,97.73
2023-05-15T02:31:07.687Z,97.89
2023-05-15T02:34:57.165Z,97.82
2023-05-15T02:38:43.664Z,98.05
2023-05-15T02:42:27.046Z,98.15
2023-05-15T02:46:09.795Z,97.61
2023-05-15T02:49:54.227Z,97.90
2023-05-15T02:53:40.819Z,97.30
2023-05-15T02:57:23.447Z,98.34
2023-05-15T03:01:06.929Z,97.86
2023-05-15T03:04:49.671Z,97.29
2023-05-15T03:08:36.750Z,97.40
2023-05-15T03:12:19.385Z,98.09
2023-05-15T03:16:02.159Z,98.54
2023-05-15T03:19:47.380Z,98.02
2023-05-15T03:23:31.225Z,98.12
2023-05-15T03:27:15.256Z,97.41
2023-05-15T03:30:58.000Z,96.87
2023-05-15T03:34:41.253Z,97.36
2023-05-15T03:38:24.052Z,98.48
2023-05-15T03:42:07.281Z,98.51
2023-05-15T03:45:52.039Z,98.77
2023-05-15T03:49:35.117Z,97.99
2023-05-15T03:53:17.812Z,97.57
2023-05-15T03:57:00.611Z,99.17
2023-05-15T04:00:44.064Z,100.00
2023-05-15T04:04:28.131Z,100.00
2023-05-15T04:08:12.343Z,100.00
2023-05-15T04:11:55.074Z,100.00
2023-05-15T04:15:38.160Z,100.00
2023-05-15T04:19:20.917Z,100.00
2023-05-15T04:23:05.768Z,100.00
2023-05-15T04:26:48.509Z,100.00
2023-05-15T04:30:31.600Z,100.00
2023-05-15T04:34:14.423Z,100.00
2023-05-15T04:37:57.386Z,100.00
2023-05-15T04:41:41.395Z,100.00
2023-05-15T04:45:24.811Z,100.00
2023-05-15T04:49:07.726Z,100.00
2023-05-15T04:52:50.601Z,100.00
2023-05-15T04:56:33.384Z,100.00
2023-05-15T05:00:18.054Z,100.00
2023-05-15T05:04:00.756Z,100.00
2023-05-15T05:07:45.776Z,100.00
2023-05-15T05:11:28.471Z,100.00
2023-05-15T05:15:11.744Z,100.00
2023-05-15T05:18:55.986Z,100.00
2023-05-15T05:22:40.092Z,100.00
2023-05-15T05:26:22.969Z,100.00
2023-05-15T05:30:06.613Z,99.26
2023-05-15T05:33:49.937Z,95.69
2023-05-15T05:37:33.978Z,94.88
2023-05-15T05:41:16.587Z,95.28
2023-05-15T05:45:00.530Z,95.31
2023-05-15T05:48:44.239Z,96.90
2023-05-15T05:52:26.935Z,96.35
2023-05-15T05:56:11.005Z,97.26
2023-05-15T05:59:53.748Z,99.01
2023-05-15T06:03:36.892Z,98.47
2023-05-15T06:07:19.838Z,99.61
2023-05-15T06:11:03.239Z,98.34
2023-05-15T06:14:47.370Z,98.08
2023-05-15T06:18:30.130Z,97.53
2023-05-15T06:22:12.797Z,96.57
2023-05-15T06:25:55.614Z,95.41
2023-05-15T06:29:38.295Z,95.37
2023-05-15T06:33:22.748Z,94.11
2023-05-15T06:37:05.875Z,94.56
2023-05-15T06:40:48.745Z,97.76
2023-05-15T06:44:32.628Z,96.83
2023-05-15T06:48:15.569Z,94.62
2023-05-15T06:51:59.768Z,90.26
2023-05-15T06:55:43.175Z,90.10
2023-05-15T06:59:26.118Z,89.01
2023-05-15T07:03:08.889Z,88.71
2023-05-15T07:06:51.540Z,90.67
2023-05-15T07:10:35.512Z,88.49
2023-05-15T07:14:18.154Z,88.16
2023-05-15T07:18:00.974Z,87.01
2023-05-15T07:21:43.800Z,86.36
2023-05-15T07:25:26.749Z,86.83
2023-05-15T07:29:12.216Z,86.15
2023-05-15T07:32:55.535Z,83.95
2023-05-15T07:36:38.255Z,81.38
2023-05-15T07:40:20.941Z,81.73
2023-05-15T07:44:03.632Z,81.59
2023-05-15T07:47:48.162Z,81.11
2023-05-15T07:51:30.932Z,79.16
2023-05-15T07:55:13.727Z,79.32
2023-05-15T07:58:56.460Z,79.27
2023-05-15T08:02:39.269Z,77.91
2023-05-15T08:06:23.453Z,77.25
2023-05-15T08:10:07.061Z,76.57
2023-05-15T08:13:49.773Z,76.09
2023-05-15T08:17:32.510Z,74.51
2023-05-15T08:21:15.387Z,72.92
2023-05-15T08:25:00.894Z,72.69
2023-05-15T08:28:43.820Z,72.46
2023-05-15T08:32:27.408Z,71.78
2023-05-15T08:36:11.207Z,71.03
2023-05-15T08:39:54.029Z,70.84
2023-05-15T08:43:39.891Z,71.75
2023-05-15T08:47:23.428Z,72.51
2023-05-15T08:51:13.365Z,70.74
2023-05-15T08:54:56.602Z,69.83
2023-05-15T08:58:41.466Z,70.74
2023-05-15T09:02:26.681Z,71.66
2023-05-15T09:06:11.166Z,70.85
2023-05-15T09:09:54.605Z,70.69
2023-05-15T09:13:37.319Z,70.69
2023-05-15T09:17:21.562Z,68.36
2023-05-15T09:21:34.976Z,69.59
2023-05-15T09:25:33.319Z,67.30
2023-05-15T09:29:19.373Z,67.44
2023-05-15T09:33:04.733Z,67.22
2023-05-15T09:36:47.448Z,66.74
2023-05-15T09:40:30.702Z,67.06
2023-05-15T09:44:21.723Z,67.71
2023-05-15T09:48:08.164Z,66.18
2023-05-15T09:51:51.341Z,65.21
2023-05-15T09:55:36.222Z,64.83
2023-05-15T09:59:21.658Z,63.58
2023-05-15T10:03:05.489Z,62.73
2023-05-15T10:06:49.848Z,62.33
2023-05-15T10:10:32.957Z,61.18
2023-05-15T10:14:16.594Z,60.87
2023-05-15T10:18:00.406Z,60.57
2023-05-15T10:21:43.299Z,59.74
2023-05-15T10:25:34.931Z,60.82
2023-05-15T10:29:21.227Z,62.40
2023-05-15T10:33:05.466Z,62.62
2023-05-15T10:36:50.872Z,62.11
2023-05-15T10:40:38.818Z,62.74
2023-05-15T10:44:21.855Z,62.65
2023-05-15T10:48:07.922Z,63.66
2023-05-15T10:51:50.610Z,63.87
2023-05-15T10:55:35.213Z,64.24
2023-05-15T10:59:17.981Z,64.94
2023-05-15T11:03:01.989Z,66.62
2023-05-15T11:06:46.238Z,67.41
2023-05-15T11:10:40.689Z,68.16
2023-05-15T11:14:24.248Z,68.09
2023-05-15T11:18:08.187Z,66.12
2023-05-15T11:21:58.004Z,66.22
2023-05-15T11:25:44.689Z,66.04
2023-05-15T11:29:28.400Z,67.02
2023-05-15T11:33:12.867Z,68.91
2023-05-15T11:36:55.897Z,67.77
2023-05-15T11:40:47.859Z,68.83
2023-05-15T11:44:32.104Z,69.06
2023-05-15T11:48:16.833Z,70.19
2023-05-15T11:51:59.599Z,68.35
2023-05-15T11:55:44.604Z,69.00
2023-05-15T11:59:29.088Z,69.94
2023-05-15T12:03:20.411Z,69.85
2023-05-15T12:07:08.955Z,69.52
2023-05-15T12:10:56.344Z,71.62
2023-05-15T12:14:41.302Z,72.84
2023-05-15T12:18:24.436Z,74.08
2023-05-15T12:22:08.415Z,74.67
2023-05-15T12:25:55.121Z,75.54
2023-05-15T12:29:38.116Z,74.96
2023-05-15T12:33:22.901Z,75.37
2023-05-15T12:37:06.531Z,74.79
2023-05-15T12:40:55.281Z,73.94
2023-05-15T12:44:38.072Z,71.29
2023-05-15T12:48:22.554Z,72.07
2023-05-15T12:52:09.789Z,73.59
2023-05-15T12:55:54.863Z,74.51
2023-05-15T12:59:37.612Z,73.47
2023-05-15T13:03:22.866Z,74.63
2023-05-15T13:07:06.018Z,75.78
2023-05-15T13:10:49.012Z,75.87
2023-05-15T13:14:35.682Z,67.80
2023-05-15T13:18:19.140Z,65.62
2023-05-15T13:22:03.227Z,66.52
2023-05-15T13:25:46.270Z,67.22
2023-05-15T13:29:29.042Z,65.44
2023-05-15T13:33:13.282Z,65.51
2023-05-15T13:36:56.120Z,66.46
2023-05-15T13:40:43.025Z,67.71
2023-05-15T13:44:25.696Z,68.32
2023-05-15T13:48:08.383Z,69.78
2023-05-15T13:51:51.056Z,70.28
2023-05-15T13:55:33.880Z,71.60
2023-05-15T13:59:18.137Z,71.81
2023-05-15T14:03:00.924Z,70.92
2023-05-15T14:06:43.563Z,71.15
2023-05-15T14:10:26.493Z,70.86
2023-05-15T14:14:09.360Z,70.54
2023-05-15T14:17:53.638Z,67.32
2023-05-15T14:21:40.364Z,64.67
2023-05-15T14:25:24.425Z,64.27
2023-05-15T14:29:07.193Z,65.86
2023-05-15T14:32:49.887Z,66.61
2023-05-15T14:36:34.061Z,67.27
2023-05-15T14:40:16.990Z,68.73
2023-05-15T14:43:59.802Z,70.92
2023-05-15T14:47:42.631Z,71.45
2023-05-15T14:51:25.327Z,71.31
2023-05-15T14:55:10.716Z,72.04
2023-05-15T14:58:53.798Z,71.87
2023-05-15T15:02:36.726Z,72.83
2023-05-15T15:06:19.799Z,73.60
2023-05-15T15:10:02.516Z,74.79
2023-05-15T15:13:46.738Z,76.16
2023-05-15T15:17:29.396Z,76.90
2023-05-15T15:21:12.773Z,77.55
2023-05-15T15:24:55.726Z,77.51
2023-05-15T15:28:38.470Z,78.84
2023-05-15T15:32:22.585Z,79.56
2023-05-15T15:36:05.984Z,79.55
2023-05-15T15:39:48.733Z,79.92
2023-05-15T15:43:31.494Z,80.51
2023-05-15T15:47:14.215Z,75.36
2023-05-15T15:50:58.334Z,74.19
2023-05-15T15:54:46.961Z,73.24
2023-05-15T15:58:30.481Z,73.51
2023-05-15T16:02:13.909Z,73.30
2023-05-15T16:05:59.860Z,73.16
2023-05-15T16:09:43.269Z,74.10
2023-05-15T16:13:26.004Z,74.12
2023-05-15T16:17:08.703Z,74.32
2023-05-15T16:20:51.373Z,74.30
2023-05-15T16:24:38.160Z,73.72
2023-05-15T16:28:21.258Z,73.45
2023-05-15T16:32:03.955Z,73.32
2023-05-15T16:35:47.302Z,74.30
2023-05-15T16:39:32.282Z,76.14
2023-05-15T16:43:16.915Z,76.30
2023-05-15T16:47:00.360Z,76.44
2023-05-15T16:50:43.302Z,77.09
2023-05-15T16:54:26.145Z,77.58
2023-05-15T16:58:08.802Z,77.80
2023-05-15T17:01:52.951Z,78.31
2023-05-15T17:05:35.637Z,78.89
2023-05-15T17:09:18.327Z,79.13
2023-05-15T17:13:02.086Z,79.82
2023-05-15T17:16:45.484Z,80.23
2023-05-15T17:20:29.656Z,79.34
2023-05-15T17:24:12.353Z,77.81
2023-05-15T17:27:55.068Z,75.58
2023-05-15T17:31:38.061Z,75.60
2023-05-15T17:35:21.302Z,75.38
2023-05-15T17:39:05.423Z,75.41
2023-05-15T17:42:48.206Z,74.69
2023-05-15T17:46:31.037Z,73.77
2023-05-15T17:50:13.757Z,73.07
2023-05-15T17:53:56.415Z,72.58
2023-05-15T17:57:40.456Z,72.28
2023-05-15T18:01:23.109Z,72.16
2023-05-15T18:05:06.405Z,71.83
2023-05-15T18:08:49.960Z,72.73
2023-05-15T18:12:32.616Z,74.16
2023-05-15T18:16:17.897Z,75.36
2023-05-15T18:20:00.641Z,75.98
2023-05-15T18:23:43.253Z,76.21
2023-05-15T18:27:26.148Z,76.92
2023-05-15T18:31:08.880Z,76.92
2023-05-15T18:34:53.025Z,77.29
2023-05-15T18:38:35.739Z,78.33
2023-05-15T18:42:18.461Z,79.07
2023-05-15T18:46:02.345Z,79.49
2023-05-15T18:49:45.049Z,79.89
2023-05-15T18:53:29.054Z,80.75
2023-05-15T18:57:14.206Z,80.92
2023-05-15T19:00:57.041Z,80.93
2023-05-15T19:04:39.773Z,81.81
2023-05-15T19:08:22.422Z,82.02
2023-05-15T19:12:07.199Z,82.66
2023-05-15T19:15:52.794Z,82.56
2023-05-15T19:19:35.415Z,83.28
2023-05-15T19:23:18.636Z,83.78
2023-05-15T19:27:01.542Z,84.34
2023-05-15T19:30:45.608Z,84.94
2023-05-15T19:34:28.294Z,85.51
2023-05-15T19:38:11.420Z,85.97
2023-05-15T19:41:55.724Z,85.45
2023-05-15T19:45:41.048Z,85.85
2023-05-15T19:49:28.003Z,85.75
2023-05-15T19:53:12.098Z,85.87
2023-05-15T19:56:56.293Z,85.56
2023-05-15T20:00:39.011Z,85.15
2023-05-15T20:04:21.682Z,84.71
2023-05-15T20:08:05.985Z,84.47
2023-05-15T20:11:48.683Z,85.80
2023-05-15T20:15:31.690Z,85.90
2023-05-15T20:19:14.616Z,85.15
2023-05-15T20:22:57.417Z,85.80
2023-05-15T20:26:41.783Z,85.43
2023-05-15T20:30:24.898Z,85.80
2023-05-15T20:34:08.214Z,86.54
2023-05-15T20:37:51.575Z,87.33
2023-05-15T20:41:34.397Z,88.12
2023-05-15T20:45:18.480Z,88.80
2023-05-15T20:49:01.147Z,91.24
2023-05-15T20:52:43.838Z,91.90
2023-05-15T20:56:26.733Z,97.41
2023-05-15T21:00:11.741Z,91.98
2023-05-15T21:03:55.947Z,88.41
2023-05-15T21:07:38.783Z,88.03
2023-05-15T21:11:21.710Z,88.03
2023-05-15T21:15:06.168Z,88.96
2023-05-15T21:18:49.061Z,89.79
2023-05-15T21:22:33.260Z,89.98
2023-05-15T21:26:16.688Z,89.72
2023-05-15T21:29:59.529Z,89.84
2023-05-15T21:33:42.285Z,89.88
2023-05-15T21:37:27.275Z,90.13
2023-05-15T21:41:11.549Z,89.42
2023-05-15T21:44:54.292Z,89.34
2023-05-15T21:48:36.949Z,89.12
2023-05-15T21:52:19.989Z,89.08
2023-05-15T21:56:02.988Z,88.56
2023-05-15T21:59:47.036Z,89.22
2023-05-15T22:03:29.807Z,89.69
2023-05-15T22:07:14.835Z,88.83
2023-05-15T22:10:57.624Z,88.81
2023-05-15T22:14:54.498Z,89.33
2023-05-15T22:18:45.304Z,89.44
2023-05-15T22:22:28.137Z,90.07
2023-05-15T22:26:10.983Z,90.06
2023-05-15T22:29:54.754Z,89.11
2023-05-15T22:33:37.635Z,89.44
2023-05-15T22:37:21.860Z,89.79
2023-05-15T22:41:04.883Z,90.05
2023-05-15T22:44:47.639Z,89.70
2023-05-15T22:48:30.457Z,89.34
2023-05-15T22:52:14.069Z,89.55
2023-05-15T22:55:58.317Z,89.59
2023-05-15T22:59:40.970Z,90.54
2023-05-15T23:03:23.879Z,89.90
2023-05-15T23:07:06.811Z,89.49
2023-05-15T23:10:49.512Z,89.20
2023-05-15T23:14:34.426Z,89.74
2023-05-15T23:18:17.365Z,90.03
2023-05-15T23:22:00.514Z,89.91
2023-05-15T23:25:43.191Z,88.72
2023-05-15T23:29:26.028Z,89.22
2023-05-15T23:33:10.219Z,89.37
2023-05-15T23:36:53.080Z,89.69
2023-05-15T23:40:35.964Z,89.97
2023-05-15T23:44:18.898Z,89.75
2023-05-15T23:48:01.657Z,89.77
2023-05-15T23:51:46.249Z,90.25
2023-05-15T23:55:28.950Z,90.05
2023-05-15T23:59:11.609Z,89.78
